createdAt,value
2023-02-12T00:00:00.115Z,95.2
2023-02-12T00:05:00.110Z,95.2
2023-02-12T00:10:00.122Z,95.2
2023-02-12T00:15:00.144Z,95.2
2023-02-12T00:20:00.099Z,95.3
2023-02-12T00:25:00.127Z,95.2
2023-02-12T00:30:00.145Z,95.2
2023-02-12T00:35:00.151Z,95.2
2023-02-12T00:40:00.123Z,95.1
2023-02-12T00:45:00.129Z,95.2
2023-02-12T00:50:00.114Z,95.1
2023-02-12T00:55:00.117Z,95.1
2023-02-12T01:00:00.185Z,95.1
2023-02-12T01:05:00.162Z,94.8
2023-02-12T01:10:00.175Z,95.1
2023-02-12T01:15:00.147Z,95.1
2023-02-12T01:20:00.124Z,95
2023-02-12T01:25:00.112Z,95.1
2023-02-12T01:30:00.156Z,95.1
2023-02-12T01:35:00.128Z,95.1
2023-02-12T01:40:00.127Z,95.1
2023-02-12T01:45:00.145Z,95.1
2023-02-12T01:50:00.147Z,95
2023-02-12T01:55:00.139Z,95
2023-02-12T02:00:00.138Z,95
2023-02-12T02:05:00.146Z,94.7
2023-02-12T02:10:00.154Z,94.9
2023-02-12T02:15:00.165Z,94.9
2023-02-12T02:20:00.149Z,95
2023-02-12T02:25:00.122Z,95
2023-02-12T02:30:00.133Z,95
2023-02-12T02:35:00.141Z,95
2023-02-12T02:40:00.144Z,95
2023-02-12T02:45:00.118Z,95
2023-02-12T02:50:00.111Z,95
2023-02-12T02:55:00.129Z,95
2023-02-12T03:00:00.111Z,95
2023-02-12T03:05:00.114Z,95
2023-02-12T03:10:00.109Z,95
2023-02-12T03:15:00.128Z,95
2023-02-12T03:20:00.136Z,95
2023-02-12T03:25:00.114Z,95
2023-02-12T03:30:00.134Z,95
2023-02-12T03:35:00.111Z,95
2023-02-12T03:40:00.109Z,95
2023-02-12T03:45:00.103Z,95
2023-02-12T03:50:00.143Z,95
2023-02-12T03:55:00.147Z,94.9
2023-02-12T04:00:00.121Z,94.9
2023-02-12T04:05:00.111Z,94.9
2023-02-12T04:10:00.106Z,94.9
2023-02-12T04:15:00.121Z,94.8
2023-02-12T04:20:00.114Z,95
2023-02-12T04:25:00.092Z,95
2023-02-12T04:30:00.124Z,94.9
2023-02-12T04:35:00.138Z,94.9
2023-02-12T04:40:00.095Z,94.9
2023-02-12T04:45:00.111Z,94.9
2023-02-12T04:50:00.127Z,94.9
2023-02-12T04:55:00.129Z,94.8
2023-02-12T05:00:00.139Z,94.9
2023-02-12T05:05:00.225Z,94.9
2023-02-12T05:10:00.127Z,94.9
2023-02-12T05:15:00.135Z,94.9
2023-02-12T05:20:00.150Z,94.9
2023-02-12T05:25:00.121Z,94.9
2023-02-12T05:30:00.118Z,94.9
2023-02-12T05:35:00.141Z,94.9
2023-02-12T05:40:00.116Z,95
2023-02-12T05:45:00.120Z,94.7
2023-02-12T05:50:00.122Z,95
2023-02-12T05:55:00.147Z,94.7
2023-02-12T06:00:00.157Z,95.1
2023-02-12T06:05:00.102Z,95.1
2023-02-12T06:10:00.134Z,95.2
2023-02-12T06:15:00.155Z,95.2
2023-02-12T06:20:00.160Z,95.2
2023-02-12T06:25:00.133Z,95.3
2023-02-12T06:30:00.168Z,95.3
2023-02-12T06:35:00.136Z,95.4
2023-02-12T06:40:00.111Z,95.4
2023-02-12T06:45:00.118Z,95.5
2023-02-12T06:50:00.128Z,95.2
2023-02-12T06:55:00.144Z,95.5
2023-02-12T07:00:00.142Z,95.5
2023-02-12T07:05:00.131Z,95.6
2023-02-12T07:10:00.132Z,95.6
2023-02-12T07:15:00.129Z,95.6
2023-02-12T07:20:00.131Z,95.7
2023-02-12T07:25:00.126Z,95.7
2023-02-12T07:30:00.147Z,95.9
2023-02-12T07:35:00.151Z,96
2023-02-12T07:40:00.137Z,96
2023-02-12T07:45:00.110Z,96.1
2023-02-12T07:50:00.120Z,96.1
2023-02-12T07:55:00.129Z,96.1
2023-02-12T08:00:00.157Z,96
2023-02-12T08:05:00.108Z,95.9
2023-02-12T08:10:00.126Z,95.9
2023-02-12T08:15:00.134Z,95.9
2023-02-12T08:20:00.118Z,96
2023-02-12T08:25:00.129Z,95.9
2023-02-12T08:30:00.163Z,96
2023-02-12T08:35:00.128Z,96
2023-02-12T08:40:00.126Z,95.9
2023-02-12T08:45:00.119Z,95.9
2023-02-12T08:50:00.143Z,95.9
2023-02-12T08:55:00.183Z,96
2023-02-12T09:00:00.149Z,96
2023-02-12T09:05:00.128Z,96.1
2023-02-12T09:10:00.124Z,96.1
2023-02-12T09:15:00.155Z,96.3
2023-02-12T09:20:00.132Z,96.3
2023-02-12T09:25:00.126Z,96.3
2023-02-12T09:30:00.132Z,96.3
2023-02-12T09:35:00.170Z,96.2
2023-02-12T09:40:00.162Z,96.1
2023-02-12T09:45:00.121Z,96
2023-02-12T09:50:00.119Z,95.9
2023-02-12T09:55:00.168Z,95.8
2023-02-12T10:00:00.134Z,95.8
2023-02-12T10:05:02.112Z,95.8
2023-02-12T10:10:00.179Z,95.8
2023-02-12T10:15:00.159Z,95.8
2023-02-12T10:20:00.106Z,95.8
2023-02-12T10:25:00.123Z,95.8
2023-02-12T10:30:00.194Z,95.6
2023-02-12T10:35:00.179Z,95.9
2023-02-12T10:40:00.120Z,95.9
2023-02-12T10:45:00.119Z,95.8
2023-02-12T10:50:00.124Z,95.7
2023-02-12T10:55:00.137Z,95.7
2023-02-12T11:00:00.154Z,95.5
2023-02-12T11:05:00.181Z,95.3
2023-02-12T11:10:00.121Z,95.3
2023-02-12T11:15:00.179Z,95.3
2023-02-12T11:20:00.109Z,95.4
2023-02-12T11:25:00.120Z,95.5
2023-02-12T11:30:00.195Z,95.2
2023-02-12T11:35:00.145Z,95.4
2023-02-12T11:40:00.112Z,95
2023-02-12T11:45:00.108Z,95.3
2023-02-12T11:50:00.133Z,95.4
2023-02-12T11:55:00.131Z,95.1
2023-02-12T12:00:00.122Z,94.8
2023-02-12T12:05:00.141Z,94.2
2023-02-12T12:10:00.138Z,93.9
2023-02-12T12:15:00.177Z,93.8
2023-02-12T12:20:00.110Z,93.7
2023-02-12T12:25:00.128Z,93.5
2023-02-12T12:30:00.140Z,93.4
2023-02-12T12:35:00.144Z,93.4
2023-02-12T12:40:00.103Z,93.4
2023-02-12T12:45:00.116Z,93.4
2023-02-12T12:50:00.134Z,93.3
2023-02-12T12:55:00.154Z,93.3
2023-02-12T13:00:00.161Z,93.1
2023-02-12T13:05:00.164Z,93
2023-02-12T13:10:00.134Z,92.8
2023-02-12T13:15:00.161Z,92.8
2023-02-12T13:20:00.157Z,92.7
2023-02-12T13:25:00.119Z,92.8
2023-02-12T13:30:00.135Z,92.8
2023-02-12T13:35:00.149Z,92.8
2023-02-12T13:40:00.132Z,92.8
2023-02-12T13:45:00.123Z,92.8
2023-02-12T13:50:00.143Z,92.9
2023-02-12T13:55:00.153Z,92.9
2023-02-12T14:00:00.161Z,93.1
2023-02-12T14:05:00.138Z,93.1
2023-02-12T14:10:00.115Z,92.9
2023-02-12T14:15:00.127Z,93.1
2023-02-12T14:20:00.125Z,93
2023-02-12T14:25:00.095Z,92.9
2023-02-12T14:30:00.148Z,92.7
2023-02-12T14:35:00.147Z,92.6
2023-02-12T14:40:00.143Z,92.6
2023-02-12T14:45:00.124Z,92.7
2023-02-12T14:50:00.131Z,92.7
2023-02-12T14:55:00.144Z,92.8
2023-02-12T15:00:00.155Z,92.7
2023-02-12T15:05:00.205Z,92.7
2023-02-12T15:10:00.115Z,92.7
2023-02-12T15:15:00.127Z,92.7
2023-02-12T15:20:00.159Z,92.7
2023-02-12T15:25:00.120Z,92.7
2023-02-12T15:30:00.106Z,92.7
2023-02-12T15:35:00.157Z,92.7
2023-02-12T15:40:00.128Z,92.6
2023-02-12T15:45:00.700Z,92.6
2023-02-12T15:50:00.154Z,92.7
2023-02-12T15:55:00.163Z,92.6
2023-02-12T16:00:00.163Z,92.6
2023-02-12T16:05:00.148Z,92.6
2023-02-12T16:10:00.174Z,92.7
2023-02-12T16:15:00.163Z,92.7
2023-02-12T16:20:00.126Z,92.7
2023-02-12T16:25:00.143Z,92.7
2023-02-12T16:30:00.120Z,92.7
2023-02-12T16:35:00.142Z,92.7
2023-02-12T16:40:00.172Z,92.8
2023-02-12T16:45:00.171Z,92.8
2023-02-12T16:50:00.121Z,92.6
2023-02-12T16:55:00.148Z,92.9
2023-02-12T17:00:00.162Z,92.9
2023-02-12T17:05:00.096Z,92.8
2023-02-12T17:10:00.153Z,92.8
2023-02-12T17:15:00.159Z,92.9
2023-02-12T17:20:00.142Z,93
2023-02-12T17:25:00.172Z,93.1
2023-02-12T17:30:00.210Z,93.2
2023-02-12T17:35:00.153Z,93.2
2023-02-12T17:40:00.147Z,93.3
2023-02-12T17:45:00.135Z,93.3
2023-02-12T17:50:00.173Z,93.3
2023-02-12T17:55:00.161Z,93.4
2023-02-12T18:00:00.166Z,93.4
2023-02-12T18:05:00.126Z,93.4
2023-02-12T18:10:00.173Z,93.4
2023-02-12T18:15:00.243Z,93.4
2023-02-12T18:20:00.147Z,93.4
2023-02-12T18:25:00.124Z,93.4
2023-02-12T18:30:00.163Z,93.4
2023-02-12T18:35:00.146Z,93.5
2023-02-12T18:40:00.146Z,93.5
2023-02-12T18:45:00.108Z,93.7
2023-02-12T18:50:00.191Z,93.8
2023-02-12T18:55:00.191Z,94
2023-02-12T19:00:00.132Z,94.1
2023-02-12T19:05:00.130Z,94.1
2023-02-12T19:10:00.141Z,94.1
2023-02-12T19:15:00.179Z,94.1
2023-02-12T19:20:00.120Z,94.2
2023-02-12T19:25:00.165Z,94.3
2023-02-12T19:30:00.187Z,94.3
2023-02-12T19:35:00.128Z,94.3
2023-02-12T19:40:00.114Z,94.3
2023-02-12T19:45:00.166Z,94.3
2023-02-12T19:50:00.133Z,94.3
2023-02-12T19:55:00.163Z,94.2
2023-02-12T20:00:00.258Z,94.2
2023-02-12T20:05:00.117Z,94.3
2023-02-12T20:10:00.133Z,94.3
2023-02-12T20:15:00.141Z,94.2
2023-02-12T20:20:00.107Z,94.2
2023-02-12T20:25:00.128Z,94.3
2023-02-12T20:30:00.198Z,94.2
2023-02-12T20:35:00.146Z,94.2
2023-02-12T20:40:00.129Z,94.2
2023-02-12T20:45:00.125Z,94.2
2023-02-12T20:50:00.123Z,94.2
2023-02-12T20:55:00.154Z,94.2
2023-02-12T21:00:00.186Z,94.2
2023-02-12T21:05:00.150Z,94.1
2023-02-12T21:10:00.127Z,94.1
2023-02-12T21:15:00.125Z,94.1
2023-02-12T21:20:00.099Z,94.1
2023-02-12T21:25:00.129Z,94.1
2023-02-12T21:30:00.138Z,94.1
2023-02-12T21:35:00.132Z,94.1
2023-02-12T21:40:00.115Z,94
2023-02-12T21:45:00.117Z,94
2023-02-12T21:50:00.137Z,94
2023-02-12T21:55:00.140Z,94
2023-02-12T22:00:00.154Z,94
2023-02-12T22:05:00.112Z,93.9
2023-02-12T22:10:00.112Z,93.9
2023-02-12T22:15:00.149Z,93.9
2023-02-12T22:20:00.102Z,93.8
2023-02-12T22:25:00.118Z,93.8
2023-02-12T22:30:00.114Z,93.8
2023-02-12T22:35:00.155Z,93.8
2023-02-12T22:40:00.112Z,93.7
2023-02-12T22:45:00.126Z,93.7
2023-02-12T22:50:00.104Z,93.7
2023-02-12T22:55:00.102Z,93.7
2023-02-12T23:00:00.189Z,93.4
2023-02-12T23:05:00.101Z,93.6
2023-02-12T23:10:00.094Z,93.6
2023-02-12T23:15:00.129Z,93.6
2023-02-12T23:20:00.120Z,93.6
2023-02-12T23:25:00.084Z,93.6
2023-02-12T23:30:00.159Z,93.6
2023-02-12T23:35:00.151Z,93.6
2023-02-12T23:40:00.170Z,93.6
2023-02-12T23:45:00.129Z,93.6
2023-02-12T23:50:00.142Z,93.5
2023-02-12T23:55:00.139Z,93.5
